Traveller — PHAM — position and weather

sailwx.info

Track history (hours):
 
Tides and Currents Weather Stations Pressure Air Temp Water Temp Dewpoint Dewpoint Depression Visibility Wind Speed Wind Dir Waves Ship Positions

Traveller

Last reported at 2016-Dec-10 00:00 UTC. Time now 2016-Dec-10 01:14 UTC.
Position N 42°24' W 010°48'.

Length 101 m; beam 20 m.

Type: Ship. MMSI: 246111000.

Barometer 1023.5 mb

Date/timePositionNaut miles runAvg speedWind from/ knotsBaromVisibWave heightAir tempDewpointWater temp
2016-Dec-10 00:00N 42°24' W 010°48'1312.8 1023.5
2016-Dec-09 23:00N 42°12' W 010°54'1918.5 1024.0
2016-Dec-09 22:00N 41°54' W 011°00'1312.8 1024.0
2016-Dec-09 21:00N 41°42' W 011°06'1918.6 1024.2
2016-Dec-09 20:00N 41°24' W 011°12'1312.8 1024.1
2016-Dec-09 19:00N 41°12' W 011°18'1818.0 1024.3
2016-Dec-09 18:00N 40°54' W 011°18'1312.8 1023.9
2016-Dec-09 17:00N 40°42' W 011°24'1918.6 1023.5
2016-Dec-09 16:00N 40°24' W 011°30'1312.8 1023.9
2016-Dec-09 15:00N 40°12' W 011°36'1918.6 1023.2
2016-Dec-09 14:00N 39°54' W 011°42'1212.0 1023.1
2016-Dec-09 13:00N 39°42' W 011°42'1918.6 1023.7
2016-Dec-09 12:00N 39°24' W 011°48'1312.9 1024.3
2016-Dec-09 11:00N 39°12' W 011°54'1918.6 1024.6
2016-Dec-09 10:00N 38°54' W 012°00'1312.9 1024.4
2016-Dec-09 09:00N 38°42' W 012°06'1212.0 1024.3
2016-Dec-09 08:00N 38°30' W 012°06'1312.9 1023.8
2016-Dec-09 07:00N 38°18' W 012°12'1918.6 1023.3
2016-Dec-09 06:00N 38°00' W 012°18'1312.9 1023.2
2016-Dec-09 05:00N 37°48' W 012°24'1212.0 1022.9
2016-Dec-09 04:00N 37°36' W 012°24'1918.6 1022.8
2016-Dec-09 03:00N 37°18' W 012°30'1312.9 1023.3
2016-Dec-09 02:00N 37°06' W 012°36'1212.0 1023.0
2016-Dec-09 01:00N 36°54' W 012°36'1918.6 1023.5
2016-Dec-09 00:00N 36°36' W 012°42'1312.9 1024.0
2016-Dec-08 23:00N 36°24' W 012°48'1212.0 1023.7
2016-Dec-08 22:00N 36°12' W 012°48'1312.9 1023.8
2016-Dec-08 21:00N 36°00' W 012°54'1818.0 1023.6
2016-Dec-08 20:00N 35°42' W 012°54'1313.0 1023.4
2016-Dec-08 19:00N 35°30' W 013°00'1313.0 1023.1
2016-Dec-08 18:00N 35°18' W 013°06'1313.0 1022.8
2016-Dec-08 17:00N 35°06' W 013°12'3015.2 1022.8
2016-Dec-08 15:00N 34°36' W 013°18'1313.0 1022.0
2016-Dec-08 14:00N 34°24' W 013°24'1818.0 1021.8
2016-Dec-08 13:00N 34°06' W 013°24'1313.0 1022.1
2016-Dec-08 12:00N 33°54' W 013°30'1918.7 1023.0
2016-Dec-08 11:00N 33°36' W 013°36'1313.0 1023.6
2016-Dec-08 10:00N 33°24' W 013°42'1818.0 1023.3
2016-Dec-08 09:00N 33°06' W 013°42'1313.0 090 / 101022.910.8 19.115.8
2016-Dec-08 08:00N 32°54' W 013°48'1918.7 1022.8
2016-Dec-08 07:00N 32°36' W 013°54'1212.0 1022.4
2016-Dec-08 06:00N 32°24' W 013°54'1313.0 1022.2
2016-Dec-08 05:00N 32°12' W 014°00'1918.7 1022.1
2016-Dec-08 04:00N 31°54' W 014°06'1313.0 1021.0
2016-Dec-08 03:00N 31°42' W 014°12'1818.0 1021.5
2016-Dec-08 02:00N 31°24' W 014°12'1313.0 1021.7
2016-Dec-08 01:00N 31°12' W 014°18'1918.7 1021.6
2016-Dec-08 00:00N 30°54' W 014°24'1212.0 1021.9
2016-Dec-07 23:00N 30°42' W 014°24'1918.7 1022.2
2016-Dec-07 22:00N 30°24' W 014°30'1313.1 1022.1
2016-Dec-07 21:00N 30°12' W 014°36'1313.1 1022.0
2016-Dec-07 20:00N 30°00' W 014°42'1818.0 1022.1
2016-Dec-07 19:00N 29°42' W 014°42'1313.1 1022.0
2016-Dec-07 18:00N 29°30' W 014°48'1212.0 1020.9
2016-Dec-07 17:00N 29°18' W 014°48'1519.1 1020.8
2016-Dec-07 16:13N 29°04' W 014°52'417.7
2016-Dec-07 16:00N 29°00' W 014°54'612.9 1020.0
2016-Dec-07 15:33N 28°54' W 014°54'611.3
2016-Dec-07 15:00N 28°48' W 014°54'919.9 1019.9
2016-Dec-07 14:33N 28°40' W 014°58'1018.1
2016-Dec-07 14:00N 28°30' W 015°00'410.3 1020.3
2016-Dec-07 13:33N 28°26' W 015°01'915.3
2016-Dec-07 13:00N 28°18' W 015°06'614.6 1020.8
2016-Dec-07 12:34N 28°14' W 015°12'610.4
2016-Dec-07 12:00N 28°12' W 015°18'818.9 1021.9
2016-Dec-07 11:33N 28°05' W 015°24'1 1.4
2016-Dec-07 11:00N 28°06' W 015°24'1 1.4 1022.6
2016-Dec-07 10:23N 28°05' W 015°24'1 2.1
2016-Dec-07 10:00N 28°06' W 015°24'1 1.5 1022.8
2016-Dec-07 09:26N 28°05' W 015°24'1 1.9
2016-Dec-07 09:00N 28°06' W 015°24'1 1.5 1022.4
2016-Dec-07 08:26N 28°05' W 015°24'1 1.9
2016-Dec-07 08:00N 28°06' W 015°24'1 1.5 1021.9
2016-Dec-07 07:26N 28°05' W 015°24'1 1.9
2016-Dec-07 07:00N 28°06' W 015°24'1 1.7 1021.7
2016-Dec-07 06:29N 28°05' W 015°24'1 1.7
2016-Dec-07 06:00N 28°06' W 015°24'1 1.7 1021.1
2016-Dec-07 05:29N 28°05' W 015°24'1 1.7
2016-Dec-07 05:00N 28°06' W 015°24'1 1.6 1021.1
2016-Dec-07 04:29N 28°05' W 015°24'1 1.7
2016-Dec-07 04:00N 28°06' W 015°24'1 1.8 1021.4
2016-Dec-07 03:32N 28°05' W 015°24'1 1.6
2016-Dec-07 03:00N 28°06' W 015°24'1 1.8 1021.7
2016-Dec-07 02:32N 28°05' W 015°24'1 1.6
2016-Dec-07 02:00N 28°06' W 015°24'1 1.9 1021.8
2016-Dec-07 01:32N 28°05' W 015°24'1 1.6
2016-Dec-07 01:00N 28°06' W 015°24'1 1.7 1022.2
2016-Dec-07 00:29N 28°05' W 015°24'1 1.7
2016-Dec-07 00:00N 28°06' W 015°24'1 1.8 1022.8
2016-Dec-06 23:32N 28°05' W 015°24'1 1.6
2016-Dec-06 23:00N 28°06' W 015°24'1 1.9 1023.3
2016-Dec-06 22:32N 28°05' W 015°24'1 1.6
2016-Dec-06 22:00N 28°06' W 015°24'1 1.9 1023.3
2016-Dec-06 21:32N 28°05' W 015°24'1 1.6
2016-Dec-06 21:00N 28°06' W 015°24'1 1.4 1023.0
2016-Dec-06 20:23N 28°05' W 015°24'1 2.2
2016-Dec-06 20:00N 28°06' W 015°24'0 0.0 1022.9
2016-Dec-06 19:00N 28°06' W 015°24'1 1.6 1022.5
2016-Dec-06 18:26N 28°05' W 015°24'1 2.0
2016-Dec-06 18:00N 28°06' W 015°24'1 1.6 1022.3
2016-Dec-06 17:26N 28°05' W 015°24'1 2.0
2016-Dec-06 17:00N 28°06' W 015°24'1 1.7 1021.9
2016-Dec-06 16:29N 28°05' W 015°24'1 1.8
2016-Dec-06 16:00N 28°06' W 015°24'1 1.7 1021.6
2016-Dec-06 15:29N 28°05' W 015°24'1 1.8
2016-Dec-06 15:00N 28°06' W 015°24'1 1.7 1022.1
2016-Dec-06 14:29N 28°05' W 015°24'1 1.8
2016-Dec-06 14:00N 28°06' W 015°24'1 1.9 1021.9
2016-Dec-06 13:32N 28°05' W 015°24'1 1.6
2016-Dec-06 13:00N 28°06' W 015°24'1 1.8 1021.9
2016-Dec-06 12:32N 28°05' W 015°24'1 1.5
2016-Dec-06 12:00N 28°06' W 015°24'1 1.7 1022.6
2016-Dec-06 11:29N 28°05' W 015°24'1 1.8
2016-Dec-06 11:00N 28°06' W 015°24'1 1.8 1023.1
2016-Dec-06 10:32N 28°05' W 015°24'1 1.5
2016-Dec-06 10:00N 28°06' W 015°24'1 1.9 1023.3
2016-Dec-06 09:32N 28°05' W 015°24'1 1.6
2016-Dec-06 09:00N 28°06' W 015°24'1 1.9 1023.0
2016-Dec-06 08:32N 28°05' W 015°24'1 1.6
2016-Dec-06 08:00N 28°06' W 015°24'1 1.9 1023.0
2016-Dec-06 07:32N 28°05' W 015°24'1 1.6
2016-Dec-06 07:00N 28°06' W 015°24'1 1.0 1022.3
2016-Dec-06 06:05N 28°05' W 015°24'1 9.8
2016-Dec-06 06:00N 28°06' W 015°24'1 1.5 1021.9
2016-Dec-06 05:23N 28°05' W 015°24'1 2.3
2016-Dec-06 05:00N 28°06' W 015°24'1 1.6 1021.3
2016-Dec-06 04:26N 28°05' W 015°24'1 2.0
2016-Dec-06 04:00N 28°06' W 015°24'1 1.7 1021.5
2016-Dec-06 03:29N 28°05' W 015°24'1 1.8
2016-Dec-06 03:00N 28°06' W 015°24'1 1.7 1021.8
2016-Dec-06 02:29N 28°05' W 015°24'1 1.8
2016-Dec-06 02:00N 28°06' W 015°24'1 1.7 1021.9
2016-Dec-06 01:29N 28°05' W 015°24'1 1.8
2016-Dec-06 01:00N 28°06' W 015°24'1 1.9 1021.9
2016-Dec-06 00:32N 28°05' W 015°24'1 1.6
2016-Dec-06 00:00N 28°06' W 015°24'1 1.6 1022.8
2016-Dec-05 23:26N 28°05' W 015°24'1 2.0
2016-Dec-05 23:00N 28°06' W 015°24'0 0.0 1023.0
2016-Dec-05 22:00N 28°06' W 015°24'1 2.0 1023.1
2016-Dec-05 21:32N 28°05' W 015°24'1 1.7
2016-Dec-05 21:00N 28°06' W 015°24'1 2.0 1022.7
2016-Dec-05 20:32N 28°05' W 015°24'1 1.7
2016-Dec-05 20:00N 28°06' W 015°24'1 2.0 1022.1
2016-Dec-05 19:32N 28°05' W 015°24'1 1.7
2016-Dec-05 19:00N 28°06' W 015°24'1 2.0 1021.4
2016-Dec-05 18:32N 28°05' W 015°24'1 1.7
2016-Dec-05 18:00N 28°06' W 015°24'1 1.4 1020.8
2016-Dec-05 17:20N 28°05' W 015°24'1 2.7
2016-Dec-05 17:00N 28°06' W 015°24'1 1.5 1020.2
2016-Dec-05 16:23N 28°05' W 015°24'1 2.3
2016-Dec-05 16:00N 28°06' W 015°24'1 1.6 1020.0
2016-Dec-05 15:26N 28°05' W 015°24'1 2.1
2016-Dec-05 15:00N 28°06' W 015°24'1 1.6 1019.5
2016-Dec-05 14:26N 28°05' W 015°24'1 2.1
2016-Dec-05 14:00N 28°06' W 015°24'1 1.6 1019.6
2016-Dec-05 13:26N 28°05' W 015°24'1 2.1
2016-Dec-05 13:00N 28°06' W 015°24'1 1.8 1020.2
2016-Dec-05 12:29N 28°05' W 015°24'1 1.8
2016-Dec-05 12:00N 28°06' W 015°24'1 1.8 1020.7
2016-Dec-05 11:29N 28°05' W 015°24'1 1.8
2016-Dec-05 11:00N 28°06' W 015°24'1 2.0 1021.2
2016-Dec-05 10:32N 28°05' W 015°24'1 1.7
2016-Dec-05 10:00N 28°06' W 015°24'1 1.9 1021.1
2016-Dec-05 09:32N 28°05' W 015°24'1 1.7
2016-Dec-05 09:00N 28°06' W 015°24'1 1.8 1020.8
2016-Dec-05 08:29N 28°05' W 015°24'1 1.8
2016-Dec-05 08:00N 28°06' W 015°24'1 2.0 1020.4
2016-Dec-05 07:32N 28°05' W 015°24'1 1.7
2016-Dec-05 07:00N 28°06' W 015°24'1 2.0 1019.4
2016-Dec-05 06:32N 28°05' W 015°24'1 1.7
2016-Dec-05 06:00N 28°06' W 015°24'1 2.0 1018.5
2016-Dec-05 05:32N 28°05' W 015°24'1 1.7
2016-Dec-05 05:00N 28°06' W 015°24'1 2.0 1018.3
2016-Dec-05 04:32N 28°05' W 015°24'1 1.7
2016-Dec-05 04:00N 28°06' W 015°24'1 2.0 1018.5
2016-Dec-05 03:32N 28°05' W 015°24'1 1.7
2016-Dec-05 03:00N 28°06' W 015°24'1 1.5 1018.5
2016-Dec-05 02:23N 28°05' W 015°24'1 2.3
2016-Dec-05 02:00N 28°06' W 015°24'1 1.6 1018.6
2016-Dec-05 01:26N 28°05' W 015°24'1 2.1
2016-Dec-05 01:00N 28°06' W 015°24'1 1.6 1018.5
2016-Dec-05 00:26N 28°05' W 015°24'1 2.1
2016-Dec-05 00:00N 28°06' W 015°24'1 1.6 1018.8
2016-Dec-04 23:26N 28°05' W 015°24'1 2.1
2016-Dec-04 23:00N 28°06' W 015°24'1 1.8 1018.6
2016-Dec-04 22:29N 28°05' W 015°24'1 1.9
2016-Dec-04 22:00N 28°06' W 015°24'1 1.8 1018.2
2016-Dec-04 21:29N 28°05' W 015°24'1 1.9
2016-Dec-04 21:00N 28°06' W 015°24'1 2.0 1017.9
2016-Dec-04 20:32N 28°05' W 015°24'1 1.7
2016-Dec-04 20:00N 28°06' W 015°24'1 2.0 1017.1
2016-Dec-04 19:32N 28°05' W 015°24'1 1.7
2016-Dec-04 19:00N 28°06' W 015°24'1 2.0 1015.9
2016-Dec-04 18:32N 28°05' W 015°24'1 1.7
2016-Dec-04 18:00N 28°06' W 015°24'1 2.0 1015.4
2016-Dec-04 17:32N 28°05' W 015°24'1 1.7
2016-Dec-04 17:00N 28°06' W 015°24'1 2.0 1014.2
2016-Dec-04 16:32N 28°05' W 015°24'1 1.7
2016-Dec-04 16:00N 28°06' W 015°24'1 2.0 1013.9
2016-Dec-04 15:32N 28°05' W 015°24'1 1.7
2016-Dec-04 15:00N 28°06' W 015°24'1 2.0 1013.7
2016-Dec-04 14:32N 28°05' W 015°24'1 1.7
2016-Dec-04 14:00N 28°06' W 015°24'1 2.0 1014.0
2016-Dec-04 13:32N 28°05' W 015°24'0 0.0
2016-Dec-04 12:23N 28°05' W 015°24'1 2.3
2016-Dec-04 12:00N 28°06' W 015°24'1 1.6 1015.2
2016-Dec-04 11:26N 28°05' W 015°24'1 2.0
2016-Dec-04 11:00N 28°06' W 015°24'1 1.6 1015.6
2016-Dec-04 10:26N 28°05' W 015°24'1 2.0
2016-Dec-04 10:00N 28°06' W 015°24'1 1.8 1015.2
2016-Dec-04 09:33N 28°06' W 015°23'1 1.4
2016-Dec-04 09:00N 28°06' W 015°24'2 4.9 1014.7
2016-Dec-04 08:34N 28°05' W 015°22'610.8
2016-Dec-04 08:00N 28°00' W 015°18'410.2 1013.8
2016-Dec-04 07:33N 27°56' W 015°18'813.4
2016-Dec-04 07:00N 27°48' W 015°18'2 4.8 1013.5
2016-Dec-04 06:33N 27°47' W 015°20'610.6
2016-Dec-04 06:00N 27°42' W 015°24'1212.2 1012.9
2016-Dec-04 05:00N 27°36' W 015°36'1110.6 1012.2
2016-Dec-04 04:00N 27°36' W 015°48'1616.0 1012.5
2016-Dec-04 03:00N 27°36' W 016°06'1212.2 1012.8
2016-Dec-04 02:00N 27°30' W 016°18'1616.0 1012.6
2016-Dec-04 01:00N 27°30' W 016°36'1110.6 1013.2
2016-Dec-04 00:00N 27°30' W 016°48'1616.0 290 / 161013.8 0.3 21.015.4
2016-Dec-03 23:00N 27°30' W 017°06'1212.2 1013.8
2016-Dec-03 22:00N 27°24' W 017°18'1110.7 1014.0
2016-Dec-03 21:00N 27°24' W 017°30'1616.0 1013.7
2016-Dec-03 20:00N 27°24' W 017°48'1212.2 1012.9
2016-Dec-03 19:00N 27°18' W 018°00'1616.0 1012.7
2016-Dec-03 18:00N 27°18' W 018°18'1110.7 1012.2
2016-Dec-03 17:00N 27°18' W 018°30'1110.7 1012.1
2016-Dec-03 16:00N 27°18' W 018°42'1616.0 1011.8
2016-Dec-03 15:00N 27°18' W 019°00'1110.7 1011.8
2016-Dec-03 14:00N 27°18' W 019°12'1616.0 1012.5
2016-Dec-03 13:00N 27°18' W 019°30'1110.7 1012.9
2016-Dec-03 12:00N 27°18' W 019°42'1110.7 1013.5
2016-Dec-03 11:00N 27°18' W 019°54'1616.0 1013.9
2016-Dec-03 10:00N 27°18' W 020°12'1110.7 1013.5
2016-Dec-03 09:00N 27°18' W 020°24'1616.0 1013.2
2016-Dec-03 08:00N 27°18' W 020°42'1212.2 1013.0
2016-Dec-03 07:00N 27°12' W 020°54'1616.0 1012.3
2016-Dec-03 06:00N 27°12' W 021°12'1110.7 1012.4
2016-Dec-03 05:00N 27°12' W 021°24'1616.0 1012.4
2016-Dec-03 04:00N 27°12' W 021°42'1110.7 1012.7
2016-Dec-03 03:00N 27°12' W 021°54'1616.0 1012.9
2016-Dec-03 02:00N 27°12' W 022°12'1110.7 1013.0
2016-Dec-03 01:00N 27°12' W 022°24'1616.0 1013.4
2016-Dec-03 00:00N 27°12' W 022°42'1110.7 270 / 331013.6 0.3 22.112.0
2016-Dec-02 23:00N 27°12' W 022°54'1616.0 1014.1
2016-Dec-02 22:00N 27°12' W 023°12'1110.7 1014.1
2016-Dec-02 21:00N 27°12' W 023°24'1616.0 1013.9
2016-Dec-02 20:00N 27°12' W 023°42'1110.7 1013.4
2016-Dec-02 19:00N 27°12' W 023°54'2713.3 1012.9
2016-Dec-02 17:00N 27°12' W 024°24'1616.0 1012.5
2016-Dec-02 16:00N 27°12' W 024°42'1110.7 1012.6
2016-Dec-02 15:00N 27°12' W 024°54'1616.0 1012.4
2016-Dec-02 14:00N 27°12' W 025°12'1110.7 1013.0
2016-Dec-02 13:00N 27°12' W 025°24'1616.0 1013.9
2016-Dec-02 12:00N 27°12' W 025°42'1110.7 260 / 221014.610.8 22.917.3
2016-Dec-02 11:00N 27°12' W 025°54'1616.0 1015.3
2016-Dec-02 10:00N 27°12' W 026°12'1110.7 1014.6
2016-Dec-02 09:00N 27°12' W 026°24'1717.1 1014.2
2016-Dec-02 08:00N 27°06' W 026°42'1110.7 1013.9
2016-Dec-02 07:00N 27°06' W 026°54'1616.0 1013.0
2016-Dec-02 06:00N 27°06' W 027°12'1110.7 1012.8
2016-Dec-02 05:00N 27°06' W 027°24'1110.7 1013.0
2016-Dec-02 04:00N 27°06' W 027°36'1616.0 1013.6
2016-Dec-02 03:00N 27°06' W 027°54'1110.7 1013.5
2016-Dec-02 02:00N 27°06' W 028°06'1616.0 1013.9
2016-Dec-02 01:00N 27°06' W 028°24'1110.7 1014.5
2016-Dec-02 00:00N 27°06' W 028°36'1616.0 1014.4
2016-Dec-01 23:00N 27°06' W 028°54'1110.7 1014.7
2016-Dec-01 22:00N 27°06' W 029°06'1110.7 1014.5
2016-Dec-01 21:00N 27°06' W 029°18'1616.0 1013.9
2016-Dec-01 20:00N 27°06' W 029°36'1110.7 1013.5
2016-Dec-01 19:00N 27°06' W 029°48'1616.0 1013.1
2016-Dec-01 18:00N 27°06' W 030°06'0 0.0 1011.9
2016-Dec-01 17:00N 27°06' W 030°06'0 0.0 1012.2
2016-Dec-01 16:00N 27°06' W 030°06'0 0.0 1012.2
2016-Dec-01 15:00N 27°06' W 030°06'5 5.3 1012.0
2016-Dec-01 14:00N 27°06' W 030°12'0 0.0 1012.9
2016-Dec-01 13:00N 27°06' W 030°12'1110.7 1013.1
2016-Dec-01 12:00N 27°06' W 030°24'1212.3 1013.0
2016-Dec-01 11:00N 27°00' W 030°36'1110.7 1013.2
2016-Dec-01 10:00N 27°00' W 030°48'2713.4 1012.4
2016-Dec-01 08:00N 27°00' W 031°18'3216.0 1011.4
2016-Dec-01 06:00N 27°00' W 031°54'1110.7 1010.8
2016-Dec-01 05:00N 27°00' W 032°06'1110.7 1010.7
2016-Dec-01 04:00N 27°00' W 032°18'1616.0 1010.7
2016-Dec-01 03:00N 27°00' W 032°36'1110.7 1010.6
2016-Dec-01 02:00N 27°00' W 032°48'1616.0 1010.2
2016-Dec-01 01:00N 27°00' W 033°06'1110.7 1010.5
2016-Dec-01 00:00N 27°00' W 033°18'1616.0 1011.0
2016-Nov-30 23:00N 27°00' W 033°36'1110.7 1011.1
2016-Nov-30 22:00N 27°00' W 033°48'1616.0 1010.5
2016-Nov-30 21:00N 27°00' W 034°06'1212.3 1009.8
2016-Nov-30 20:00N 26°54' W 034°18'1110.7 1009.3
2016-Nov-30 19:00N 26°54' W 034°30'1616.1 1009.0
2016-Nov-30 18:00N 26°54' W 034°48'1110.7 1008.7
2016-Nov-30 17:00N 26°54' W 035°00'1616.1 1008.7
2016-Nov-30 16:00N 26°54' W 035°18'1110.7 1008.8
2016-Nov-30 15:00N 26°54' W 035°30'1616.1 1008.9
2016-Nov-30 14:00N 26°54' W 035°48'1110.7 1009.8
2016-Nov-30 13:00N 26°54' W 036°00'1616.1 1010.7
2016-Nov-30 12:00N 26°54' W 036°18'5 5.4 1011.4
2016-Nov-30 11:00N 26°54' W 036°24'1110.7 1011.0
2016-Nov-30 10:00N 26°54' W 036°36'1110.7 1010.5
2016-Nov-30 09:00N 26°54' W 036°48'1616.1 1010.6
2016-Nov-30 08:00N 26°54' W 037°06'1110.7 1010.1
2016-Nov-30 07:00N 26°54' W 037°18'1717.1 1010.4
2016-Nov-30 06:00N 26°48' W 037°36'1110.7 1010.7
2016-Nov-30 05:00N 26°48' W 037°48'1616.1 1011.1
2016-Nov-30 04:00N 26°48' W 038°06'1110.7 1011.6
2016-Nov-30 03:00N 26°48' W 038°18'1110.7 1012.2
2016-Nov-30 02:00N 26°48' W 038°30'1616.1 1012.7
2016-Nov-30 01:00N 26°48' W 038°48'1110.7 1013.2
2016-Nov-30 00:00N 26°48' W 039°00'   1012.8
Track history (hours):
 
Tides and Currents Weather Stations Pressure Air Temp Water Temp Dewpoint Dewpoint Depression Visibility Wind Speed Wind Dir Waves Ship Positions

Traveller

Last reported at 2016-Dec-10 00:00 UTC. Time now 2016-Dec-10 01:14 UTC.
Position N 42°24' W 010°48'.

Length 101 m; beam 20 m.

Type: Ship. MMSI: 246111000.

Barometer 1023.5 mb

Date/timePositionNaut miles runAvg speedWind from/ knotsBaromVisibWave heightAir tempDewpointWater temp
2016-Dec-10 00:00N 42°24' W 010°48'1312.8 1023.5
2016-Dec-09 23:00N 42°12' W 010°54'1918.5 1024.0
2016-Dec-09 22:00N 41°54' W 011°00'1312.8 1024.0
2016-Dec-09 21:00N 41°42' W 011°06'1918.6 1024.2
2016-Dec-09 20:00N 41°24' W 011°12'1312.8 1024.1
2016-Dec-09 19:00N 41°12' W 011°18'1818.0 1024.3
2016-Dec-09 18:00N 40°54' W 011°18'1312.8 1023.9
2016-Dec-09 17:00N 40°42' W 011°24'1918.6 1023.5
2016-Dec-09 16:00N 40°24' W 011°30'1312.8 1023.9
2016-Dec-09 15:00N 40°12' W 011°36'1918.6 1023.2
2016-Dec-09 14:00N 39°54' W 011°42'1212.0 1023.1
2016-Dec-09 13:00N 39°42' W 011°42'1918.6 1023.7
2016-Dec-09 12:00N 39°24' W 011°48'1312.9 1024.3
2016-Dec-09 11:00N 39°12' W 011°54'1918.6 1024.6
2016-Dec-09 10:00N 38°54' W 012°00'1312.9 1024.4
2016-Dec-09 09:00N 38°42' W 012°06'1212.0 1024.3
2016-Dec-09 08:00N 38°30' W 012°06'1312.9 1023.8
2016-Dec-09 07:00N 38°18' W 012°12'1918.6 1023.3
2016-Dec-09 06:00N 38°00' W 012°18'1312.9 1023.2
2016-Dec-09 05:00N 37°48' W 012°24'1212.0 1022.9
2016-Dec-09 04:00N 37°36' W 012°24'1918.6 1022.8
2016-Dec-09 03:00N 37°18' W 012°30'1312.9 1023.3
2016-Dec-09 02:00N 37°06' W 012°36'1212.0 1023.0
2016-Dec-09 01:00N 36°54' W 012°36'1918.6 1023.5
2016-Dec-09 00:00N 36°36' W 012°42'1312.9 1024.0
2016-Dec-08 23:00N 36°24' W 012°48'1212.0 1023.7
2016-Dec-08 22:00N 36°12' W 012°48'1312.9 1023.8
2016-Dec-08 21:00N 36°00' W 012°54'1818.0 1023.6
2016-Dec-08 20:00N 35°42' W 012°54'1313.0 1023.4
2016-Dec-08 19:00N 35°30' W 013°00'1313.0 1023.1
2016-Dec-08 18:00N 35°18' W 013°06'1313.0 1022.8
2016-Dec-08 17:00N 35°06' W 013°12'3015.2 1022.8
2016-Dec-08 15:00N 34°36' W 013°18'1313.0 1022.0
2016-Dec-08 14:00N 34°24' W 013°24'1818.0 1021.8
2016-Dec-08 13:00N 34°06' W 013°24'1313.0 1022.1
2016-Dec-08 12:00N 33°54' W 013°30'1918.7 1023.0
2016-Dec-08 11:00N 33°36' W 013°36'1313.0 1023.6
2016-Dec-08 10:00N 33°24' W 013°42'1818.0 1023.3
2016-Dec-08 09:00N 33°06' W 013°42'1313.0 090 / 101022.910.8 19.115.8
2016-Dec-08 08:00N 32°54' W 013°48'1918.7 1022.8
2016-Dec-08 07:00N 32°36' W 013°54'1212.0 1022.4
2016-Dec-08 06:00N 32°24' W 013°54'1313.0 1022.2
2016-Dec-08 05:00N 32°12' W 014°00'1918.7 1022.1
2016-Dec-08 04:00N 31°54' W 014°06'1313.0 1021.0
2016-Dec-08 03:00N 31°42' W 014°12'1818.0 1021.5
2016-Dec-08 02:00N 31°24' W 014°12'1313.0 1021.7
2016-Dec-08 01:00N 31°12' W 014°18'1918.7 1021.6
2016-Dec-08 00:00N 30°54' W 014°24'1212.0 1021.9
2016-Dec-07 23:00N 30°42' W 014°24'1918.7 1022.2
2016-Dec-07 22:00N 30°24' W 014°30'1313.1 1022.1
2016-Dec-07 21:00N 30°12' W 014°36'1313.1 1022.0
2016-Dec-07 20:00N 30°00' W 014°42'1818.0 1022.1
2016-Dec-07 19:00N 29°42' W 014°42'1313.1 1022.0
2016-Dec-07 18:00N 29°30' W 014°48'1212.0 1020.9
2016-Dec-07 17:00N 29°18' W 014°48'1519.1 1020.8
2016-Dec-07 16:13N 29°04' W 014°52'417.7
2016-Dec-07 16:00N 29°00' W 014°54'612.9 1020.0
2016-Dec-07 15:33N 28°54' W 014°54'611.3
2016-Dec-07 15:00N 28°48' W 014°54'919.9 1019.9
2016-Dec-07 14:33N 28°40' W 014°58'1018.1
2016-Dec-07 14:00N 28°30' W 015°00'410.3 1020.3
2016-Dec-07 13:33N 28°26' W 015°01'915.3
2016-Dec-07 13:00N 28°18' W 015°06'614.6 1020.8
2016-Dec-07 12:34N 28°14' W 015°12'610.4
2016-Dec-07 12:00N 28°12' W 015°18'818.9 1021.9
2016-Dec-07 11:33N 28°05' W 015°24'1 1.4
2016-Dec-07 11:00N 28°06' W 015°24'1 1.4 1022.6
2016-Dec-07 10:23N 28°05' W 015°24'1 2.1
2016-Dec-07 10:00N 28°06' W 015°24'1 1.5 1022.8
2016-Dec-07 09:26N 28°05' W 015°24'1 1.9
2016-Dec-07 09:00N 28°06' W 015°24'1 1.5 1022.4
2016-Dec-07 08:26N 28°05' W 015°24'1 1.9
2016-Dec-07 08:00N 28°06' W 015°24'1 1.5 1021.9
2016-Dec-07 07:26N 28°05' W 015°24'1 1.9
2016-Dec-07 07:00N 28°06' W 015°24'1 1.7 1021.7
2016-Dec-07 06:29N 28°05' W 015°24'1 1.7
2016-Dec-07 06:00N 28°06' W 015°24'1 1.7 1021.1
2016-Dec-07 05:29N 28°05' W 015°24'1 1.7
2016-Dec-07 05:00N 28°06' W 015°24'1 1.6 1021.1
2016-Dec-07 04:29N 28°05' W 015°24'1 1.7
2016-Dec-07 04:00N 28°06' W 015°24'1 1.8 1021.4
2016-Dec-07 03:32N 28°05' W 015°24'1 1.6
2016-Dec-07 03:00N 28°06' W 015°24'1 1.8 1021.7
2016-Dec-07 02:32N 28°05' W 015°24'1 1.6
2016-Dec-07 02:00N 28°06' W 015°24'1 1.9 1021.8
2016-Dec-07 01:32N 28°05' W 015°24'1 1.6
2016-Dec-07 01:00N 28°06' W 015°24'1 1.7 1022.2
2016-Dec-07 00:29N 28°05' W 015°24'1 1.7
2016-Dec-07 00:00N 28°06' W 015°24'1 1.8 1022.8
2016-Dec-06 23:32N 28°05' W 015°24'1 1.6
2016-Dec-06 23:00N 28°06' W 015°24'1 1.9 1023.3
2016-Dec-06 22:32N 28°05' W 015°24'1 1.6
2016-Dec-06 22:00N 28°06' W 015°24'1 1.9 1023.3
2016-Dec-06 21:32N 28°05' W 015°24'1 1.6
2016-Dec-06 21:00N 28°06' W 015°24'1 1.4 1023.0
2016-Dec-06 20:23N 28°05' W 015°24'1 2.2
2016-Dec-06 20:00N 28°06' W 015°24'0 0.0 1022.9
2016-Dec-06 19:00N 28°06' W 015°24'1 1.6 1022.5
2016-Dec-06 18:26N 28°05' W 015°24'1 2.0
2016-Dec-06 18:00N 28°06' W 015°24'1 1.6 1022.3
2016-Dec-06 17:26N 28°05' W 015°24'1 2.0
2016-Dec-06 17:00N 28°06' W 015°24'1 1.7 1021.9
2016-Dec-06 16:29N 28°05' W 015°24'1 1.8
2016-Dec-06 16:00N 28°06' W 015°24'1 1.7 1021.6
2016-Dec-06 15:29N 28°05' W 015°24'1 1.8
2016-Dec-06 15:00N 28°06' W 015°24'1 1.7 1022.1
2016-Dec-06 14:29N 28°05' W 015°24'1 1.8
2016-Dec-06 14:00N 28°06' W 015°24'1 1.9 1021.9
2016-Dec-06 13:32N 28°05' W 015°24'1 1.6
2016-Dec-06 13:00N 28°06' W 015°24'1 1.8 1021.9
2016-Dec-06 12:32N 28°05' W 015°24'1 1.5
2016-Dec-06 12:00N 28°06' W 015°24'1 1.7 1022.6
2016-Dec-06 11:29N 28°05' W 015°24'1 1.8
2016-Dec-06 11:00N 28°06' W 015°24'1 1.8 1023.1
2016-Dec-06 10:32N 28°05' W 015°24'1 1.5
2016-Dec-06 10:00N 28°06' W 015°24'1 1.9 1023.3
2016-Dec-06 09:32N 28°05' W 015°24'1 1.6
2016-Dec-06 09:00N 28°06' W 015°24'1 1.9 1023.0
2016-Dec-06 08:32N 28°05' W 015°24'1 1.6
2016-Dec-06 08:00N 28°06' W 015°24'1 1.9 1023.0
2016-Dec-06 07:32N 28°05' W 015°24'1 1.6
2016-Dec-06 07:00N 28°06' W 015°24'1 1.0 1022.3
2016-Dec-06 06:05N 28°05' W 015°24'1 9.8
2016-Dec-06 06:00N 28°06' W 015°24'1 1.5 1021.9
2016-Dec-06 05:23N 28°05' W 015°24'1 2.3
2016-Dec-06 05:00N 28°06' W 015°24'1 1.6 1021.3
2016-Dec-06 04:26N 28°05' W 015°24'1 2.0
2016-Dec-06 04:00N 28°06' W 015°24'1 1.7 1021.5
2016-Dec-06 03:29N 28°05' W 015°24'1 1.8
2016-Dec-06 03:00N 28°06' W 015°24'1 1.7 1021.8
2016-Dec-06 02:29N 28°05' W 015°24'1 1.8
2016-Dec-06 02:00N 28°06' W 015°24'1 1.7 1021.9
2016-Dec-06 01:29N 28°05' W 015°24'1 1.8
2016-Dec-06 01:00N 28°06' W 015°24'1 1.9 1021.9
2016-Dec-06 00:32N 28°05' W 015°24'1 1.6
2016-Dec-06 00:00N 28°06' W 015°24'1 1.6 1022.8
2016-Dec-05 23:26N 28°05' W 015°24'1 2.0
2016-Dec-05 23:00N 28°06' W 015°24'0 0.0 1023.0
2016-Dec-05 22:00N 28°06' W 015°24'1 2.0 1023.1
2016-Dec-05 21:32N 28°05' W 015°24'1 1.7
2016-Dec-05 21:00N 28°06' W 015°24'1 2.0 1022.7
2016-Dec-05 20:32N 28°05' W 015°24'1 1.7
2016-Dec-05 20:00N 28°06' W 015°24'1 2.0 1022.1
2016-Dec-05 19:32N 28°05' W 015°24'1 1.7
2016-Dec-05 19:00N 28°06' W 015°24'1 2.0 1021.4
2016-Dec-05 18:32N 28°05' W 015°24'1 1.7
2016-Dec-05 18:00N 28°06' W 015°24'1 1.4 1020.8
2016-Dec-05 17:20N 28°05' W 015°24'1 2.7
2016-Dec-05 17:00N 28°06' W 015°24'1 1.5 1020.2
2016-Dec-05 16:23N 28°05' W 015°24'1 2.3
2016-Dec-05 16:00N 28°06' W 015°24'1 1.6 1020.0
2016-Dec-05 15:26N 28°05' W 015°24'1 2.1
2016-Dec-05 15:00N 28°06' W 015°24'1 1.6 1019.5
2016-Dec-05 14:26N 28°05' W 015°24'1 2.1
2016-Dec-05 14:00N 28°06' W 015°24'1 1.6 1019.6
2016-Dec-05 13:26N 28°05' W 015°24'1 2.1
2016-Dec-05 13:00N 28°06' W 015°24'1 1.8 1020.2
2016-Dec-05 12:29N 28°05' W 015°24'1 1.8
2016-Dec-05 12:00N 28°06' W 015°24'1 1.8 1020.7
2016-Dec-05 11:29N 28°05' W 015°24'1 1.8
2016-Dec-05 11:00N 28°06' W 015°24'1 2.0 1021.2
2016-Dec-05 10:32N 28°05' W 015°24'1 1.7
2016-Dec-05 10:00N 28°06' W 015°24'1 1.9 1021.1
2016-Dec-05 09:32N 28°05' W 015°24'1 1.7
2016-Dec-05 09:00N 28°06' W 015°24'1 1.8 1020.8
2016-Dec-05 08:29N 28°05' W 015°24'1 1.8
2016-Dec-05 08:00N 28°06' W 015°24'1 2.0 1020.4
2016-Dec-05 07:32N 28°05' W 015°24'1 1.7
2016-Dec-05 07:00N 28°06' W 015°24'1 2.0 1019.4
2016-Dec-05 06:32N 28°05' W 015°24'1 1.7
2016-Dec-05 06:00N 28°06' W 015°24'1 2.0 1018.5
2016-Dec-05 05:32N 28°05' W 015°24'1 1.7
2016-Dec-05 05:00N 28°06' W 015°24'1 2.0 1018.3
2016-Dec-05 04:32N 28°05' W 015°24'1 1.7
2016-Dec-05 04:00N 28°06' W 015°24'1 2.0 1018.5
2016-Dec-05 03:32N 28°05' W 015°24'1 1.7
2016-Dec-05 03:00N 28°06' W 015°24'1 1.5 1018.5
2016-Dec-05 02:23N 28°05' W 015°24'1 2.3
2016-Dec-05 02:00N 28°06' W 015°24'1 1.6 1018.6
2016-Dec-05 01:26N 28°05' W 015°24'1 2.1
2016-Dec-05 01:00N 28°06' W 015°24'1 1.6 1018.5
2016-Dec-05 00:26N 28°05' W 015°24'1 2.1
2016-Dec-05 00:00N 28°06' W 015°24'1 1.6 1018.8
2016-Dec-04 23:26N 28°05' W 015°24'1 2.1
2016-Dec-04 23:00N 28°06' W 015°24'1 1.8 1018.6
2016-Dec-04 22:29N 28°05' W 015°24'1 1.9
2016-Dec-04 22:00N 28°06' W 015°24'1 1.8 1018.2
2016-Dec-04 21:29N 28°05' W 015°24'1 1.9
2016-Dec-04 21:00N 28°06' W 015°24'1 2.0 1017.9
2016-Dec-04 20:32N 28°05' W 015°24'1 1.7
2016-Dec-04 20:00N 28°06' W 015°24'1 2.0 1017.1
2016-Dec-04 19:32N 28°05' W 015°24'1 1.7
2016-Dec-04 19:00N 28°06' W 015°24'1 2.0 1015.9
2016-Dec-04 18:32N 28°05' W 015°24'1 1.7
2016-Dec-04 18:00N 28°06' W 015°24'1 2.0 1015.4
2016-Dec-04 17:32N 28°05' W 015°24'1 1.7
2016-Dec-04 17:00N 28°06' W 015°24'1 2.0 1014.2
2016-Dec-04 16:32N 28°05' W 015°24'1 1.7
2016-Dec-04 16:00N 28°06' W 015°24'1 2.0 1013.9
2016-Dec-04 15:32N 28°05' W 015°24'1 1.7
2016-Dec-04 15:00N 28°06' W 015°24'1 2.0 1013.7
2016-Dec-04 14:32N 28°05' W 015°24'1 1.7
2016-Dec-04 14:00N 28°06' W 015°24'1 2.0 1014.0
2016-Dec-04 13:32N 28°05' W 015°24'0 0.0
2016-Dec-04 12:23N 28°05' W 015°24'1 2.3
2016-Dec-04 12:00N 28°06' W 015°24'1 1.6 1015.2
2016-Dec-04 11:26N 28°05' W 015°24'1 2.0
2016-Dec-04 11:00N 28°06' W 015°24'1 1.6 1015.6
2016-Dec-04 10:26N 28°05' W 015°24'1 2.0
2016-Dec-04 10:00N 28°06' W 015°24'1 1.8 1015.2
2016-Dec-04 09:33N 28°06' W 015°23'1 1.4
2016-Dec-04 09:00N 28°06' W 015°24'2 4.9 1014.7
2016-Dec-04 08:34N 28°05' W 015°22'610.8
2016-Dec-04 08:00N 28°00' W 015°18'410.2 1013.8
2016-Dec-04 07:33N 27°56' W 015°18'813.4
2016-Dec-04 07:00N 27°48' W 015°18'2 4.8 1013.5
2016-Dec-04 06:33N 27°47' W 015°20'610.6
2016-Dec-04 06:00N 27°42' W 015°24'1212.2 1012.9
2016-Dec-04 05:00N 27°36' W 015°36'1110.6 1012.2
2016-Dec-04 04:00N 27°36' W 015°48'1616.0 1012.5
2016-Dec-04 03:00N 27°36' W 016°06'1212.2 1012.8
2016-Dec-04 02:00N 27°30' W 016°18'1616.0 1012.6
2016-Dec-04 01:00N 27°30' W 016°36'1110.6 1013.2
2016-Dec-04 00:00N 27°30' W 016°48'1616.0 290 / 161013.8 0.3 21.015.4
2016-Dec-03 23:00N 27°30' W 017°06'1212.2 1013.8
2016-Dec-03 22:00N 27°24' W 017°18'1110.7 1014.0
2016-Dec-03 21:00N 27°24' W 017°30'1616.0 1013.7
2016-Dec-03 20:00N 27°24' W 017°48'1212.2 1012.9
2016-Dec-03 19:00N 27°18' W 018°00'1616.0 1012.7
2016-Dec-03 18:00N 27°18' W 018°18'1110.7 1012.2
2016-Dec-03 17:00N 27°18' W 018°30'1110.7 1012.1
2016-Dec-03 16:00N 27°18' W 018°42'1616.0 1011.8
2016-Dec-03 15:00N 27°18' W 019°00'1110.7 1011.8
2016-Dec-03 14:00N 27°18' W 019°12'1616.0 1012.5
2016-Dec-03 13:00N 27°18' W 019°30'1110.7 1012.9
2016-Dec-03 12:00N 27°18' W 019°42'1110.7 1013.5
2016-Dec-03 11:00N 27°18' W 019°54'1616.0 1013.9
2016-Dec-03 10:00N 27°18' W 020°12'1110.7 1013.5
2016-Dec-03 09:00N 27°18' W 020°24'1616.0 1013.2
2016-Dec-03 08:00N 27°18' W 020°42'1212.2 1013.0
2016-Dec-03 07:00N 27°12' W 020°54'1616.0 1012.3
2016-Dec-03 06:00N 27°12' W 021°12'1110.7 1012.4
2016-Dec-03 05:00N 27°12' W 021°24'1616.0 1012.4
2016-Dec-03 04:00N 27°12' W 021°42'1110.7 1012.7
2016-Dec-03 03:00N 27°12' W 021°54'1616.0 1012.9
2016-Dec-03 02:00N 27°12' W 022°12'1110.7 1013.0
2016-Dec-03 01:00N 27°12' W 022°24'1616.0 1013.4
2016-Dec-03 00:00N 27°12' W 022°42'1110.7 270 / 331013.6 0.3 22.112.0
2016-Dec-02 23:00N 27°12' W 022°54'1616.0 1014.1
2016-Dec-02 22:00N 27°12' W 023°12'1110.7 1014.1
2016-Dec-02 21:00N 27°12' W 023°24'1616.0 1013.9
2016-Dec-02 20:00N 27°12' W 023°42'1110.7 1013.4
2016-Dec-02 19:00N 27°12' W 023°54'2713.3 1012.9
2016-Dec-02 17:00N 27°12' W 024°24'1616.0 1012.5
2016-Dec-02 16:00N 27°12' W 024°42'1110.7 1012.6
2016-Dec-02 15:00N 27°12' W 024°54'1616.0 1012.4
2016-Dec-02 14:00N 27°12' W 025°12'1110.7 1013.0
2016-Dec-02 13:00N 27°12' W 025°24'1616.0 1013.9
2016-Dec-02 12:00N 27°12' W 025°42'1110.7 260 / 221014.610.8 22.917.3
2016-Dec-02 11:00N 27°12' W 025°54'1616.0 1015.3
2016-Dec-02 10:00N 27°12' W 026°12'1110.7 1014.6
2016-Dec-02 09:00N 27°12' W 026°24'1717.1 1014.2
2016-Dec-02 08:00N 27°06' W 026°42'1110.7 1013.9
2016-Dec-02 07:00N 27°06' W 026°54'1616.0 1013.0
2016-Dec-02 06:00N 27°06' W 027°12'1110.7 1012.8
2016-Dec-02 05:00N 27°06' W 027°24'1110.7 1013.0
2016-Dec-02 04:00N 27°06' W 027°36'1616.0 1013.6
2016-Dec-02 03:00N 27°06' W 027°54'1110.7 1013.5
2016-Dec-02 02:00N 27°06' W 028°06'1616.0 1013.9
2016-Dec-02 01:00N 27°06' W 028°24'1110.7 1014.5
2016-Dec-02 00:00N 27°06' W 028°36'1616.0 1014.4
2016-Dec-01 23:00N 27°06' W 028°54'1110.7 1014.7
2016-Dec-01 22:00N 27°06' W 029°06'1110.7 1014.5
2016-Dec-01 21:00N 27°06' W 029°18'1616.0 1013.9
2016-Dec-01 20:00N 27°06' W 029°36'1110.7 1013.5
2016-Dec-01 19:00N 27°06' W 029°48'1616.0 1013.1
2016-Dec-01 18:00N 27°06' W 030°06'0 0.0 1011.9
2016-Dec-01 17:00N 27°06' W 030°06'0 0.0 1012.2
2016-Dec-01 16:00N 27°06' W 030°06'0 0.0 1012.2
2016-Dec-01 15:00N 27°06' W 030°06'5 5.3 1012.0
2016-Dec-01 14:00N 27°06' W 030°12'0 0.0 1012.9
2016-Dec-01 13:00N 27°06' W 030°12'1110.7 1013.1
2016-Dec-01 12:00N 27°06' W 030°24'1212.3 1013.0
2016-Dec-01 11:00N 27°00' W 030°36'1110.7 1013.2
2016-Dec-01 10:00N 27°00' W 030°48'2713.4 1012.4
2016-Dec-01 08:00N 27°00' W 031°18'3216.0 1011.4
2016-Dec-01 06:00N 27°00' W 031°54'1110.7 1010.8
2016-Dec-01 05:00N 27°00' W 032°06'1110.7 1010.7
2016-Dec-01 04:00N 27°00' W 032°18'1616.0 1010.7
2016-Dec-01 03:00N 27°00' W 032°36'1110.7 1010.6
2016-Dec-01 02:00N 27°00' W 032°48'1616.0 1010.2
2016-Dec-01 01:00N 27°00' W 033°06'1110.7 1010.5
2016-Dec-01 00:00N 27°00' W 033°18'1616.0 1011.0
2016-Nov-30 23:00N 27°00' W 033°36'1110.7 1011.1
2016-Nov-30 22:00N 27°00' W 033°48'1616.0 1010.5
2016-Nov-30 21:00N 27°00' W 034°06'1212.3 1009.8
2016-Nov-30 20:00N 26°54' W 034°18'1110.7 1009.3
2016-Nov-30 19:00N 26°54' W 034°30'1616.1 1009.0
2016-Nov-30 18:00N 26°54' W 034°48'1110.7 1008.7
2016-Nov-30 17:00N 26°54' W 035°00'1616.1 1008.7
2016-Nov-30 16:00N 26°54' W 035°18'1110.7 1008.8
2016-Nov-30 15:00N 26°54' W 035°30'1616.1 1008.9
2016-Nov-30 14:00N 26°54' W 035°48'1110.7 1009.8
2016-Nov-30 13:00N 26°54' W 036°00'1616.1 1010.7
2016-Nov-30 12:00N 26°54' W 036°18'5 5.4 1011.4
2016-Nov-30 11:00N 26°54' W 036°24'1110.7 1011.0
2016-Nov-30 10:00N 26°54' W 036°36'1110.7 1010.5
2016-Nov-30 09:00N 26°54' W 036°48'1616.1 1010.6
2016-Nov-30 08:00N 26°54' W 037°06'1110.7 1010.1
2016-Nov-30 07:00N 26°54' W 037°18'1717.1 1010.4
2016-Nov-30 06:00N 26°48' W 037°36'1110.7 1010.7
2016-Nov-30 05:00N 26°48' W 037°48'1616.1 1011.1
2016-Nov-30 04:00N 26°48' W 038°06'1110.7 1011.6
2016-Nov-30 03:00N 26°48' W 038°18'1110.7 1012.2
2016-Nov-30 02:00N 26°48' W 038°30'1616.1 1012.7
2016-Nov-30 01:00N 26°48' W 038°48'1110.7 1013.2
2016-Nov-30 00:00N 26°48' W 039°00'   1012.8

Dump ship's entire track history